Time;durP1;ratioP1;P1;durP2;ratioP2;P2;SDS_P1;SDS_P2;PMS_P1;PMS_P2;Temp;Humidity;BMP_temperature;BMP_pressure;BME280_temperature;BME280_humidity;BME280_pressure;Samples;Min_cycle;Max_cycle;Signal;HPM_P1;HPM_P2
2021/08/07 00:00:40;;;;;;;1.70;0.82;;;;;;;;;;10447363;28;20438;-89
2021/08/07 00:05:42;;;;;;;1.55;0.90;;;;;;;;;;10443521;28;20399;-89
2021/08/07 00:10:43;;;;;;;2.13;0.90;;;;;;;;;;10448017;28;20083;-89
2021/08/07 00:15:43;;;;;;;1.73;1.20;;;;;;;;;;10447066;28;20111;-87
2021/08/07 00:20:44;;;;;;;2.10;1.30;;;;;;;;;;10446746;28;20128;-88
2021/08/07 00:25:45;;;;;;;3.15;1.20;;;;;;;;;;10447011;28;20048;-88
2021/08/07 00:30:46;;;;;;;1.60;1.10;;;;;;;;;;10446677;28;20446;-88
2021/08/07 00:35:47;;;;;;;2.08;1.20;;;;;;;;;;10465747;28;20041;-87
2021/08/07 00:40:51;;;;;;;1.70;1.13;;;;;;;;;;10491128;28;20083;-83
2021/08/07 00:45:53;;;;;;;1.70;1.08;;;;;;;;;;10490350;28;20020;-83
2021/08/07 00:50:55;;;;;;;4.10;1.50;;;;;;;;;;10468320;28;20040;-89
2021/08/07 00:55:56;;;;;;;0.98;0.88;;;;;;;;;;10444875;28;20029;-88
2021/08/07 01:00:57;;;;;;;2.53;1.23;;;;;;;;;;10462925;28;20398;-88
2021/08/07 01:06:11;;;;;;;1.45;1.05;;;;;;;;;;10444512;28;20128;-88
2021/08/07 01:11:22;;;;;;;2.33;1.23;;;;;;;;;;10444804;28;20398;-89
2021/08/07 01:16:23;;;;;;;;;;;;;;;;;;10444141;28;20084;-89
2021/08/07 01:21:55;;;;;;;1.48;0.98;;;;;;;;;;10443988;28;19909;-89
2021/08/07 01:26:59;;;;;;;1.80;1.00;;;;;;;;;;10444179;28;20048;-88
2021/08/07 01:32:03;;;;;;;1.90;1.45;;;;;;;;;;10445398;28;20037;-88
2021/08/07 01:37:13;;;;;;;2.22;1.35;;;;;;;;;;10461131;28;20060;-89
2021/08/07 01:42:14;;;;;;;2.65;1.50;;;;;;;;;;10461071;28;20108;-88
2021/08/07 01:47:34;;;;;;;3.17;1.80;;;;;;;;;;10442613;28;20455;-89
2021/08/07 02:03:58;;;;;;;1.80;1.25;;;;;;;;;;10472002;28;20036;-86
2021/08/07 02:20:54;;;;;;;1.70;1.20;;;;;;;;;;10481404;28;20056;-86
2021/08/07 02:37:38;;;;;;;1.65;1.10;;;;;;;;;;10479537;28;20041;-87
2021/08/07 02:43:15;;;;;;;1.77;1.27;;;;;;;;;;10480979;28;20036;-87
2021/08/07 02:48:16;;;;;;;1.98;1.38;;;;;;;;;;10460765;28;20033;-86
2021/08/07 02:53:50;;;;;;;2.47;1.40;;;;;;;;;;10461099;28;20096;-86
2021/08/07 02:58:54;;;;;;;2.75;1.05;;;;;;;;;;10460971;28;20483;-86
2021/08/07 03:03:58;;;;;;;1.90;1.08;;;;;;;;;;10450649;28;20494;-89
2021/08/07 03:19:57;;;;;;;1.88;0.90;;;;;;;;;;10462756;28;20037;-89
2021/08/07 03:53:23;;;;;;;2.47;1.08;;;;;;;;;;10499137;28;20359;-87
2021/08/07 07:08:05;;;;;;;2.65;1.05;;;;;;;;;;10438618;28;19913;-82
2021/08/07 07:13:08;;;;;;;2.05;1.10;;;;;;;;;;10458409;28;20040;-84
2021/08/07 07:18:09;;;;;;;4.10;1.30;;;;;;;;;;10475653;28;20029;-83
2021/08/07 07:23:12;;;;;;;2.92;1.30;;;;;;;;;;10455732;28;20037;-84
2021/08/07 07:28:13;;;;;;;3.97;1.30;;;;;;;;;;10479721;28;20029;-83
2021/08/07 07:33:14;;;;;;;3.67;1.50;;;;;;;;;;10461843;28;20047;-82
2021/08/07 07:38:15;;;;;;;5.35;1.60;;;;;;;;;;10474425;28;20069;-82
2021/08/07 07:43:19;;;;;;;4.88;1.30;;;;;;;;;;10478724;28;20451;-82
2021/08/07 07:48:20;;;;;;;5.05;1.42;;;;;;;;;;10490070;28;20024;-82
2021/08/07 07:53:21;;;;;;;2.92;1.38;;;;;;;;;;10463140;28;20029;-82
2021/08/07 07:58:22;;;;;;;6.05;1.50;;;;;;;;;;10459718;28;20051;-82
2021/08/07 08:03:23;;;;;;;2.90;1.40;;;;;;;;;;10470545;28;20118;-84
2021/08/07 08:08:24;;;;;;;3.92;1.65;;;;;;;;;;10455019;28;20040;-83
2021/08/07 08:13:25;;;;;;;2.35;1.30;;;;;;;;;;10457883;28;20520;-84
2021/08/07 08:18:26;;;;;;;3.50;1.60;;;;;;;;;;10455191;28;20033;-84
2021/08/07 08:23:27;;;;;;;3.83;1.65;;;;;;;;;;10457664;28;20120;-82
2021/08/07 08:28:28;;;;;;;3.60;1.50;;;;;;;;;;10479306;28;20052;-82
2021/08/07 08:33:29;;;;;;;2.90;1.50;;;;;;;;;;10464334;28;20037;-82
2021/08/07 08:38:30;;;;;;;2.40;1.27;;;;;;;;;;10463445;28;20037;-81
2021/08/07 08:43:32;;;;;;;2.30;1.45;;;;;;;;;;10463367;28;20041;-81
2021/08/07 08:48:33;;;;;;;6.57;1.52;;;;;;;;;;10466443;28;20032;-82
2021/08/07 08:53:36;;;;;;;4.00;1.77;;;;;;;;;;10486396;28;20123;-83
2021/08/07 08:58:37;;;;;;;4.15;1.63;;;;;;;;;;10470884;28;20029;-83
2021/08/07 09:03:38;;;;;;;2.42;1.50;;;;;;;;;;10485891;28;20088;-82
2021/08/07 09:08:39;;;;;;;2.67;1.40;;;;;;;;;;10466127;28;20029;-82
2021/08/07 09:13:40;;;;;;;4.93;1.70;;;;;;;;;;10473173;28;20085;-81
2021/08/07 09:18:42;;;;;;;3.85;1.60;;;;;;;;;;10491163;28;20040;-82
2021/08/07 09:23:43;;;;;;;3.55;1.63;;;;;;;;;;10461545;28;20036;-82
2021/08/07 09:28:49;;;;;;;3.05;2.08;;;;;;;;;;10468442;28;20431;-84
2021/08/07 09:34:10;;;;;;;3.63;1.75;;;;;;;;;;10484791;28;20041;-82
2021/08/07 09:39:13;;;;;;;6.38;1.70;;;;;;;;;;10473529;28;20037;-82
2021/08/07 09:44:20;;;;;;;6.97;2.10;;;;;;;;;;10472692;28;20045;-82
2021/08/07 09:49:33;;;;;;;5.05;1.90;;;;;;;;;;10456599;28;20029;-83
2021/08/07 09:54:37;;;;;;;4.68;1.80;;;;;;;;;;10466758;28;20028;-84
2021/08/07 09:59:46;;;;;;;3.40;2.05;;;;;;;;;;10464871;28;20032;-84
2021/08/07 10:04:47;;;;;;;7.07;2.40;;;;;;;;;;10462634;28;20052;-84
2021/08/07 10:09:48;;;;;;;4.93;2.10;;;;;;;;;;10482648;28;20033;-83
2021/08/07 10:14:50;;;;;;;5.68;2.15;;;;;;;;;;10459138;28;20483;-83
2021/08/07 10:19:51;;;;;;;3.40;2.10;;;;;;;;;;10460044;28;20120;-84
2021/08/07 10:25:18;;;;;;;7.00;2.05;;;;;;;;;;10458845;28;20056;-84
2021/08/07 10:30:19;;;;;;;4.50;2.03;;;;;;;;;;10469776;28;20029;-86
2021/08/07 10:35:24;;;;;;;4.22;2.00;;;;;;;;;;10470369;28;20100;-85
2021/08/07 10:40:27;;;;;;;4.22;1.83;;;;;;;;;;10489775;28;20454;-85
2021/08/07 10:45:29;;;;;;;2.63;1.90;;;;;;;;;;10467215;28;20491;-84
2021/08/07 10:56:07;;;;;;;4.55;1.95;;;;;;;;;;10490769;28;20033;-89
2021/08/07 11:01:26;;;;;;;5.22;2.08;;;;;;;;;;10483840;28;20045;-86
2021/08/07 11:06:44;;;;;;;5.20;2.30;;;;;;;;;;10488994;28;20079;-87
2021/08/07 11:12:14;;;;;;;4.30;2.97;;;;;;;;;;10480863;28;20045;-86
2021/08/07 11:17:23;;;;;;;4.55;1.92;;;;;;;;;;10495371;28;20110;-86
2021/08/07 11:22:44;;;;;;;5.50;2.30;;;;;;;;;;10471725;28;20037;-86
2021/08/07 11:39:03;;;;;;;7.45;3.55;;;;;;;;;;10499114;28;20068;-84
2021/08/07 11:44:18;;;;;;;4.88;3.70;;;;;;;;;;10492247;28;20017;-85
2021/08/07 11:49:30;;;;;;;6.72;3.10;;;;;;;;;;10485009;28;20041;-85
2021/08/07 11:54:31;;;;;;;5.68;3.05;;;;;;;;;;10466408;28;20029;-85
2021/08/07 11:59:32;;;;;;;5.20;3.38;;;;;;;;;;10471354;28;20124;-85
2021/08/07 12:04:33;;;;;;;4.20;2.60;;;;;;;;;;10460921;28;20085;-84
2021/08/07 12:09:34;;;;;;;5.22;3.83;;;;;;;;;;10476033;28;20017;-84
2021/08/07 12:14:35;;;;;;;5.78;3.75;;;;;;;;;;10455874;28;20060;-85
2021/08/07 12:19:36;;;;;;;5.40;2.70;;;;;;;;;;10456366;28;20253;-85
2021/08/07 12:24:37;;;;;;;4.30;3.00;;;;;;;;;;10466717;28;20036;-85
2021/08/07 12:29:38;;;;;;;8.98;7.00;;;;;;;;;;10469722;28;20041;-85
2021/08/07 12:34:39;;;;;;;3.08;2.13;;;;;;;;;;10460506;28;20592;-85
2021/08/07 12:39:42;;;;;;;3.92;2.33;;;;;;;;;;10462222;28;20025;-85
2021/08/07 12:44:43;;;;;;;5.60;2.33;;;;;;;;;;10476849;28;20402;-85
2021/08/07 12:49:44;;;;;;;3.67;1.70;;;;;;;;;;10461369;28;20056;-86
2021/08/07 12:55:03;;;;;;;2.83;1.50;;;;;;;;;;10454676;28;20033;-86
2021/08/07 13:00:04;;;;;;;3.13;1.75;;;;;;;;;;10453333;28;20039;-86
2021/08/07 13:05:06;;;;;;;4.25;1.70;;;;;;;;;;10452679;28;20029;-86
2021/08/07 13:10:23;;;;;;;3.17;1.40;;;;;;;;;;10455285;28;20100;-85
2021/08/07 13:15:25;;;;;;;4.45;1.55;;;;;;;;;;10453911;28;20067;-85
2021/08/07 13:20:40;;;;;;;2.83;1.33;;;;;;;;;;10461086;28;20041;-86
2021/08/07 13:25:42;;;;;;;3.13;1.33;;;;;;;;;;10463864;28;20040;-84
2021/08/07 13:31:02;;;;;;;3.25;1.23;;;;;;;;;;10478052;28;20094;-86
2021/08/07 13:36:03;;;;;;;2.60;1.23;;;;;;;;;;10457609;28;20087;-84
2021/08/07 13:41:09;;;;;;;2.88;0.90;;;;;;;;;;10462449;28;20383;-84
2021/08/07 13:46:10;;;;;;;2.42;1.15;;;;;;;;;;10472912;28;20074;-83
2021/08/07 13:51:11;;;;;;;2.42;1.25;;;;;;;;;;10449344;28;20037;-85
2021/08/07 13:56:11;;;;;;;3.83;1.23;;;;;;;;;;10448948;28;20032;-85
2021/08/07 14:01:12;;;;;;;2.83;1.13;;;;;;;;;;10459833;28;20091;-86
2021/08/07 14:06:14;;;;;;;2.60;1.00;;;;;;;;;;10460077;28;20037;-83
2021/08/07 14:11:16;;;;;;;3.50;1.20;;;;;;;;;;10452750;28;20041;-84
2021/08/07 14:16:17;;;;;;;3.15;2.08;;;;;;;;;;10451499;28;20092;-85
2021/08/07 14:21:18;;;;;;;2.22;1.40;;;;;;;;;;10454325;28;20037;-83
2021/08/07 14:26:18;;;;;;;2.95;1.20;;;;;;;;;;10451910;28;20033;-84
2021/08/07 14:31:19;;;;;;;2.97;1.00;;;;;;;;;;10459013;28;20057;-84
2021/08/07 14:36:20;;;;;;;1.85;1.17;;;;;;;;;;10471555;28;20033;-86
2021/08/07 14:41:22;;;;;;;2.70;1.00;;;;;;;;;;10470000;28;20041;-86
2021/08/07 14:46:23;;;;;;;1.85;1.00;;;;;;;;;;10455856;28;20033;-86
2021/08/07 14:51:24;;;;;;;3.17;1.17;;;;;;;;;;10451619;28;20498;-84
2021/08/07 14:56:26;;;;;;;2.63;1.00;;;;;;;;;;10460964;28;20048;-86
2021/08/07 15:01:27;;;;;;;3.25;1.10;;;;;;;;;;10459534;28;20025;-86
2021/08/07 15:06:28;;;;;;;4.35;1.20;;;;;;;;;;10458550;28;20043;-86
2021/08/07 15:11:29;;;;;;;1.88;1.00;;;;;;;;;;10465017;28;20576;-86
2021/08/07 15:16:30;;;;;;;2.58;1.00;;;;;;;;;;10485389;28;20041;-83
2021/08/07 15:21:31;;;;;;;2.28;1.10;;;;;;;;;;10462836;28;20545;-84
2021/08/07 16:51:39;;;;;;;1.73;1.17;;;;;;;;;;10329238;28;20071;-83
2021/08/07 16:56:44;;;;;;;2.42;1.00;;;;;;;;;;10469062;28;20465;-83
2021/08/07 21:29:01;;;;;;;2.45;1.30;;;;;;;;;;10478763;22;20088;-83
2021/08/07 21:34:02;;;;;;;3.05;1.35;;;;;;;;;;10398102;28;20052;-85
2021/08/07 21:39:23;;;;;;;3.28;1.50;;;;;;;;;;10473487;28;20117;-86
2021/08/07 21:44:24;;;;;;;;;;;;;;;;;;10455433;28;20044;-85
2021/08/07 21:49:30;;;;;;;2.97;1.30;;;;;;;;;;10473657;28;19905;-83
2021/08/07 21:54:37;;;;;;;2.75;1.60;;;;;;;;;;10460010;28;20055;-85
2021/08/07 21:59:45;;;;;;;2.20;1.30;;;;;;;;;;10460030;28;20025;-84
2021/08/07 22:04:53;;;;;;;2.97;1.58;;;;;;;;;;10477880;28;20037;-83
2021/08/07 22:09:54;;;;;;;2.47;1.55;;;;;;;;;;10459748;28;20041;-85
2021/08/07 22:14:55;;;;;;;3.83;1.85;;;;;;;;;;10457551;28;20083;-85
2021/08/07 22:19:58;;;;;;;2.13;1.40;;;;;;;;;;10474326;28;20453;-86
2021/08/07 22:24:59;;;;;;;2.65;1.45;;;;;;;;;;10466723;28;20043;-86
2021/08/07 22:30:00;;;;;;;1.98;1.10;;;;;;;;;;10469626;28;20029;-84
2021/08/07 22:35:01;;;;;;;2.88;1.30;;;;;;;;;;10470039;28;20047;-85
2021/08/07 22:40:02;;;;;;;3.90;1.33;;;;;;;;;;10476577;28;20040;-84
2021/08/07 22:45:04;;;;;;;4.22;1.40;;;;;;;;;;10480676;28;20053;-85
2021/08/07 22:50:05;;;;;;;2.97;1.35;;;;;;;;;;10478988;28;20029;-84
2021/08/07 22:55:06;;;;;;;3.83;1.52;;;;;;;;;;10502386;28;20045;-85
2021/08/07 23:00:08;;;;;;;2.42;1.10;;;;;;;;;;10462655;28;20077;-86
2021/08/07 23:05:10;;;;;;;2.92;1.23;;;;;;;;;;10462363;28;20095;-85
2021/08/07 23:10:11;;;;;;;2.03;1.00;;;;;;;;;;10462488;28;20047;-85
2021/08/07 23:15:12;;;;;;;1.98;1.00;;;;;;;;;;10459776;28;20174;-84
2021/08/07 23:20:13;;;;;;;1.40;0.80;;;;;;;;;;10463143;28;20402;-86
2021/08/07 23:25:14;;;;;;;2.10;1.05;;;;;;;;;;10464323;28;20041;-85
2021/08/07 23:30:15;;;;;;;1.73;0.80;;;;;;;;;;10475150;28;20096;-82
2021/08/07 23:35:17;;;;;;;2.70;0.90;;;;;;;;;;10456151;28;20398;-85
2021/08/07 23:40:18;;;;;;;2.15;0.80;;;;;;;;;;10460736;28;20372;-83
2021/08/07 23:45:20;;;;;;;3.35;0.90;;;;;;;;;;10459112;28;20025;-84
2021/08/07 23:50:21;;;;;;;1.83;0.82;;;;;;;;;;10461554;28;20033;-85
2021/08/07 23:55:21;;;;;;;;;;;;;;;;;;10462616;28;20057;-82
